sensor_id;sensor_type;location;lat;lon;timestamp;P1;durP1;ratioP1;P2;durP2;ratioP2
12212;SDS011;6169;44.158;22.788;2023-08-08T00:04:28;1.88;;;1.70;;
12212;SDS011;6169;44.158;22.788;2023-08-08T00:09:32;2.45;;;2.25;;
12212;SDS011;6169;44.158;22.788;2023-08-08T00:14:34;3.63;;;2.42;;
12212;SDS011;6169;44.158;22.788;2023-08-08T00:19:36;2.60;;;2.40;;
12212;SDS011;6169;44.158;22.788;2023-08-08T00:24:40;3.03;;;2.75;;
12212;SDS011;6169;44.158;22.788;2023-08-08T00:29:42;4.05;;;2.55;;
12212;SDS011;6169;44.158;22.788;2023-08-08T00:34:45;2.83;;;2.58;;
12212;SDS011;6169;44.158;22.788;2023-08-08T00:39:49;8.63;;;2.28;;
12212;SDS011;6169;44.158;22.788;2023-08-08T00:44:51;1.95;;;1.85;;
12212;SDS011;6169;44.158;22.788;2023-08-08T00:49:53;2.47;;;2.17;;
12212;SDS011;6169;44.158;22.788;2023-08-08T00:54:57;2.65;;;2.20;;
12212;SDS011;6169;44.158;22.788;2023-08-08T01:00:02;2.45;;;2.10;;
12212;SDS011;6169;44.158;22.788;2023-08-08T01:05:05;1.80;;;1.70;;
12212;SDS011;6169;44.158;22.788;2023-08-08T01:10:10;2.20;;;1.85;;
12212;SDS011;6169;44.158;22.788;2023-08-08T01:15:17;3.42;;;2.03;;
12212;SDS011;6169;44.158;22.788;2023-08-08T01:20:20;1.58;;;1.45;;
12212;SDS011;6169;44.158;22.788;2023-08-08T01:25:24;1.67;;;1.58;;
12212;SDS011;6169;44.158;22.788;2023-08-08T01:30:27;2.13;;;1.90;;
12212;SDS011;6169;44.158;22.788;2023-08-08T01:35:30;3.53;;;1.67;;
12212;SDS011;6169;44.158;22.788;2023-08-08T01:40:39;3.57;;;2.00;;
12212;SDS011;6169;44.158;22.788;2023-08-08T01:45:45;2.13;;;1.83;;
12212;SDS011;6169;44.158;22.788;2023-08-08T01:50:48;2.15;;;1.23;;
12212;SDS011;6169;44.158;22.788;2023-08-08T01:55:52;1.30;;;1.20;;
12212;SDS011;6169;44.158;22.788;2023-08-08T02:00:54;1.70;;;1.60;;
12212;SDS011;6169;44.158;22.788;2023-08-08T02:05:56;2.38;;;1.80;;
12212;SDS011;6169;44.158;22.788;2023-08-08T02:11:00;2.38;;;1.73;;
12212;SDS011;6169;44.158;22.788;2023-08-08T02:16:03;2.83;;;1.70;;
12212;SDS011;6169;44.158;22.788;2023-08-08T02:21:05;1.67;;;1.58;;
12212;SDS011;6169;44.158;22.788;2023-08-08T02:26:09;2.38;;;2.03;;
12212;SDS011;6169;44.158;22.788;2023-08-08T02:31:11;2.45;;;1.88;;
12212;SDS011;6169;44.158;22.788;2023-08-08T02:36:15;3.03;;;1.98;;
12212;SDS011;6169;44.158;22.788;2023-08-08T02:41:18;3.05;;;2.75;;
12212;SDS011;6169;44.158;22.788;2023-08-08T02:46:21;2.47;;;2.30;;
12212;SDS011;6169;44.158;22.788;2023-08-08T02:51:23;2.92;;;2.28;;
12212;SDS011;6169;44.158;22.788;2023-08-08T02:56:26;2.50;;;2.03;;
12212;SDS011;6169;44.158;22.788;2023-08-08T03:01:29;10.77;;;2.30;;
12212;SDS011;6169;44.158;22.788;2023-08-08T03:06:31;2.50;;;2.30;;
12212;SDS011;6169;44.158;22.788;2023-08-08T03:11:35;2.65;;;2.45;;
12212;SDS011;6169;44.158;22.788;2023-08-08T03:16:41;4.22;;;2.90;;
12212;SDS011;6169;44.158;22.788;2023-08-08T03:21:43;3.72;;;2.83;;
12212;SDS011;6169;44.158;22.788;2023-08-08T03:26:47;2.97;;;2.65;;
12212;SDS011;6169;44.158;22.788;2023-08-08T03:31:49;2.80;;;2.60;;
12212;SDS011;6169;44.158;22.788;2023-08-08T03:36:51;3.17;;;2.95;;
12212;SDS011;6169;44.158;22.788;2023-08-08T03:41:54;3.05;;;2.78;;
12212;SDS011;6169;44.158;22.788;2023-08-08T03:46:57;3.42;;;3.03;;
12212;SDS011;6169;44.158;22.788;2023-08-08T03:51:59;2.38;;;2.17;;
12212;SDS011;6169;44.158;22.788;2023-08-08T03:57:02;1.60;;;1.50;;
12212;SDS011;6169;44.158;22.788;2023-08-08T04:02:05;4.25;;;1.73;;
12212;SDS011;6169;44.158;22.788;2023-08-08T04:07:07;0.95;;;0.95;;
12212;SDS011;6169;44.158;22.788;2023-08-08T04:12:11;1.15;;;1.05;;
12212;SDS011;6169;44.158;22.788;2023-08-08T04:17:13;2.42;;;1.00;;
12212;SDS011;6169;44.158;22.788;2023-08-08T04:22:15;0.95;;;0.95;;
12212;SDS011;6169;44.158;22.788;2023-08-08T04:27:19;1.50;;;0.88;;
12212;SDS011;6169;44.158;22.788;2023-08-08T04:32:21;2.28;;;0.55;;
12212;SDS011;6169;44.158;22.788;2023-08-08T04:37:23;2.38;;;0.88;;
12212;SDS011;6169;44.158;22.788;2023-08-08T04:42:27;0.60;;;0.60;;
12212;SDS011;6169;44.158;22.788;2023-08-08T04:47:29;1.00;;;0.80;;
12212;SDS011;6169;44.158;22.788;2023-08-08T04:52:31;1.17;;;0.82;;
12212;SDS011;6169;44.158;22.788;2023-08-08T04:57:35;0.38;;;0.38;;
12212;SDS011;6169;44.158;22.788;2023-08-08T05:02:37;1.00;;;0.43;;
12212;SDS011;6169;44.158;22.788;2023-08-08T05:07:39;1.33;;;0.30;;
12212;SDS011;6169;44.158;22.788;2023-08-08T05:12:43;0.52;;;0.30;;
12212;SDS011;6169;44.158;22.788;2023-08-08T05:17:45;0.45;;;0.25;;
12212;SDS011;6169;44.158;22.788;2023-08-08T05:22:47;0.43;;;0.10;;
12212;SDS011;6169;44.158;22.788;2023-08-08T05:27:51;0.15;;;0.15;;
12212;SDS011;6169;44.158;22.788;2023-08-08T05:32:53;2.08;;;0.10;;
12212;SDS011;6169;44.158;22.788;2023-08-08T05:37:55;2.53;;;0.32;;
12212;SDS011;6169;44.158;22.788;2023-08-08T05:42:59;0.20;;;0.20;;
12212;SDS011;6169;44.158;22.788;2023-08-08T05:48:01;0.80;;;0.40;;
12212;SDS011;6169;44.158;22.788;2023-08-08T05:53:03;0.20;;;0.10;;
12212;SDS011;6169;44.158;22.788;2023-08-08T05:58:07;3.80;;;0.40;;
12212;SDS011;6169;44.158;22.788;2023-08-08T06:03:09;0.90;;;0.20;;
12212;SDS011;6169;44.158;22.788;2023-08-08T06:08:12;1.85;;;0.30;;
12212;SDS011;6169;44.158;22.788;2023-08-08T06:13:18;2.78;;;0.17;;
12212;SDS011;6169;44.158;22.788;2023-08-08T06:18:20;2.40;;;0.10;;
12212;SDS011;6169;44.158;22.788;2023-08-08T06:23:22;1.73;;;0.15;;
12212;SDS011;6169;44.158;22.788;2023-08-08T06:28:26;1.30;;;0.20;;
12212;SDS011;6169;44.158;22.788;2023-08-08T06:33:28;1.63;;;0.45;;
12212;SDS011;6169;44.158;22.788;2023-08-08T06:38:30;0.45;;;0.25;;
12212;SDS011;6169;44.158;22.788;2023-08-08T06:43:35;0.40;;;0.08;;
12212;SDS011;6169;44.158;22.788;2023-08-08T06:48:37;0.10;;;0.10;;
12212;SDS011;6169;44.158;22.788;2023-08-08T06:53:39;0.38;;;0.00;;
12212;SDS011;6169;44.158;22.788;2023-08-08T06:58:43;0.77;;;0.30;;
12212;SDS011;6169;44.158;22.788;2023-08-08T07:03:45;0.88;;;0.30;;
12212;SDS011;6169;44.158;22.788;2023-08-08T07:08:48;1.55;;;0.10;;
12212;SDS011;6169;44.158;22.788;2023-08-08T07:13:51;0.65;;;0.32;;
12212;SDS011;6169;44.158;22.788;2023-08-08T07:18:53;1.42;;;0.40;;
12212;SDS011;6169;44.158;22.788;2023-08-08T07:23:55;0.43;;;0.30;;
12212;SDS011;6169;44.158;22.788;2023-08-08T07:28:59;0.40;;;0.40;;
12212;SDS011;6169;44.158;22.788;2023-08-08T07:34:01;2.58;;;0.77;;
12212;SDS011;6169;44.158;22.788;2023-08-08T07:39:05;4.63;;;3.13;;
12212;SDS011;6169;44.158;22.788;2023-08-08T07:44:08;0.73;;;0.73;;
12212;SDS011;6169;44.158;22.788;2023-08-08T07:49:10;0.38;;;0.38;;
12212;SDS011;6169;44.158;22.788;2023-08-08T07:54:13;1.13;;;0.30;;
12212;SDS011;6169;44.158;22.788;2023-08-08T07:59:16;0.68;;;0.40;;
12212;SDS011;6169;44.158;22.788;2023-08-08T08:04:19;2.47;;;1.27;;
12212;SDS011;6169;44.158;22.788;2023-08-08T08:09:21;0.65;;;0.10;;
12212;SDS011;6169;44.158;22.788;2023-08-08T08:14:25;0.43;;;0.43;;
12212;SDS011;6169;44.158;22.788;2023-08-08T08:19:27;0.10;;;0.10;;
12212;SDS011;6169;44.158;22.788;2023-08-08T08:24:30;1.45;;;0.20;;
12212;SDS011;6169;44.158;22.788;2023-08-08T08:29:33;0.70;;;0.65;;
12212;SDS011;6169;44.158;22.788;2023-08-08T08:34:36;0.30;;;0.20;;
12212;SDS011;6169;44.158;22.788;2023-08-08T08:39:38;0.93;;;0.52;;
12212;SDS011;6169;44.158;22.788;2023-08-08T08:44:41;0.30;;;0.30;;
12212;SDS011;6169;44.158;22.788;2023-08-08T08:49:44;0.30;;;0.30;;
12212;SDS011;6169;44.158;22.788;2023-08-08T08:54:47;0.50;;;0.40;;
12212;SDS011;6169;44.158;22.788;2023-08-08T08:59:51;0.52;;;0.20;;
12212;SDS011;6169;44.158;22.788;2023-08-08T09:04:53;0.50;;;0.50;;
12212;SDS011;6169;44.158;22.788;2023-08-08T09:09:56;0.10;;;0.10;;
12212;SDS011;6169;44.158;22.788;2023-08-08T09:15:01;1.67;;;0.10;;
12212;SDS011;6169;44.158;22.788;2023-08-08T09:20:06;1.45;;;0.10;;
12212;SDS011;6169;44.158;22.788;2023-08-08T09:25:11;0.13;;;0.10;;
12212;SDS011;6169;44.158;22.788;2023-08-08T09:30:14;0.08;;;0.08;;
12212;SDS011;6169;44.158;22.788;2023-08-08T09:35:17;0.63;;;0.10;;
12212;SDS011;6169;44.158;22.788;2023-08-08T09:40:19;0.82;;;0.00;;
12212;SDS011;6169;44.158;22.788;2023-08-08T09:45:23;0.20;;;0.00;;
12212;SDS011;6169;44.158;22.788;2023-08-08T09:50:25;2.17;;;0.10;;
12212;SDS011;6169;44.158;22.788;2023-08-08T09:55:29;0.30;;;0.20;;
12212;SDS011;6169;44.158;22.788;2023-08-08T10:00:33;0.85;;;0.10;;
12212;SDS011;6169;44.158;22.788;2023-08-08T10:05:36;0.28;;;0.28;;
12212;SDS011;6169;44.158;22.788;2023-08-08T10:10:38;1.85;;;0.10;;
12212;SDS011;6169;44.158;22.788;2023-08-08T10:15:42;1.35;;;0.17;;
12212;SDS011;6169;44.158;22.788;2023-08-08T10:20:46;0.25;;;0.20;;
12212;SDS011;6169;44.158;22.788;2023-08-08T10:25:50;0.47;;;0.10;;
12212;SDS011;6169;44.158;22.788;2023-08-08T10:30:55;0.10;;;0.10;;
12212;SDS011;6169;44.158;22.788;2023-08-08T10:35:59;0.10;;;0.10;;
12212;SDS011;6169;44.158;22.788;2023-08-08T10:41:02;2.00;;;0.20;;
12212;SDS011;6169;44.158;22.788;2023-08-08T10:46:06;0.82;;;0.10;;
12212;SDS011;6169;44.158;22.788;2023-08-08T10:51:08;0.55;;;0.20;;
12212;SDS011;6169;44.158;22.788;2023-08-08T10:56:12;1.35;;;0.10;;
12212;SDS011;6169;44.158;22.788;2023-08-08T11:01:17;0.88;;;0.25;;
12212;SDS011;6169;44.158;22.788;2023-08-08T11:06:19;0.75;;;0.00;;
12212;SDS011;6169;44.158;22.788;2023-08-08T11:11:22;1.08;;;0.00;;
12212;SDS011;6169;44.158;22.788;2023-08-08T11:16:26;0.45;;;0.10;;
12212;SDS011;6169;44.158;22.788;2023-08-08T11:21:28;0.30;;;0.20;;
12212;SDS011;6169;44.158;22.788;2023-08-08T11:26:30;1.55;;;0.20;;
12212;SDS011;6169;44.158;22.788;2023-08-08T11:31:35;0.65;;;0.00;;
12212;SDS011;6169;44.158;22.788;2023-08-08T11:36:38;0.10;;;0.10;;
12212;SDS011;6169;44.158;22.788;2023-08-08T11:41:40;0.35;;;0.10;;
12212;SDS011;6169;44.158;22.788;2023-08-08T11:46:45;1.40;;;0.10;;
12212;SDS011;6169;44.158;22.788;2023-08-08T11:51:48;1.48;;;0.00;;
12212;SDS011;6169;44.158;22.788;2023-08-08T11:56:50;0.10;;;0.00;;
12212;SDS011;6169;44.158;22.788;2023-08-08T12:01:55;0.88;;;0.15;;
12212;SDS011;6169;44.158;22.788;2023-08-08T12:07:01;1.55;;;0.17;;
12212;SDS011;6169;44.158;22.788;2023-08-08T12:12:04;0.75;;;0.08;;
12212;SDS011;6169;44.158;22.788;2023-08-08T12:17:08;0.32;;;0.13;;
12212;SDS011;6169;44.158;22.788;2023-08-08T12:22:11;0.20;;;0.20;;
12212;SDS011;6169;44.158;22.788;2023-08-08T12:27:13;0.00;;;0.00;;
12212;SDS011;6169;44.158;22.788;2023-08-08T12:32:17;0.68;;;0.28;;
12212;SDS011;6169;44.158;22.788;2023-08-08T12:37:23;0.20;;;0.10;;
12212;SDS011;6169;44.158;22.788;2023-08-08T12:42:26;0.17;;;0.00;;
12212;SDS011;6169;44.158;22.788;2023-08-08T12:47:29;0.10;;;0.10;;
12212;SDS011;6169;44.158;22.788;2023-08-08T12:52:32;3.25;;;0.30;;
12212;SDS011;6169;44.158;22.788;2023-08-08T12:57:34;0.40;;;0.15;;
12212;SDS011;6169;44.158;22.788;2023-08-08T13:02:38;0.55;;;0.17;;
12212;SDS011;6169;44.158;22.788;2023-08-08T13:07:40;0.00;;;0.00;;
12212;SDS011;6169;44.158;22.788;2023-08-08T13:12:43;0.00;;;0.00;;
12212;SDS011;6169;44.158;22.788;2023-08-08T13:17:46;0.65;;;0.10;;
12212;SDS011;6169;44.158;22.788;2023-08-08T13:22:49;0.80;;;0.08;;
12212;SDS011;6169;44.158;22.788;2023-08-08T13:27:51;0.10;;;0.10;;
12212;SDS011;6169;44.158;22.788;2023-08-08T13:32:54;0.03;;;0.03;;
12212;SDS011;6169;44.158;22.788;2023-08-08T13:37:56;0.13;;;0.10;;
12212;SDS011;6169;44.158;22.788;2023-08-08T13:42:59;0.15;;;0.15;;
12212;SDS011;6169;44.158;22.788;2023-08-08T13:48:03;0.38;;;0.20;;
12212;SDS011;6169;44.158;22.788;2023-08-08T13:53:05;1.60;;;0.00;;
12212;SDS011;6169;44.158;22.788;2023-08-08T13:58:07;0.05;;;0.05;;
12212;SDS011;6169;44.158;22.788;2023-08-08T14:03:11;0.28;;;0.10;;
12212;SDS011;6169;44.158;22.788;2023-08-08T14:08:14;2.72;;;0.35;;
12212;SDS011;6169;44.158;22.788;2023-08-08T14:13:16;0.10;;;0.10;;
12212;SDS011;6169;44.158;22.788;2023-08-08T14:18:20;0.65;;;0.15;;
12212;SDS011;6169;44.158;22.788;2023-08-08T14:23:23;0.32;;;0.10;;
12212;SDS011;6169;44.158;22.788;2023-08-08T14:28:25;0.35;;;0.15;;
12212;SDS011;6169;44.158;22.788;2023-08-08T14:33:28;3.10;;;1.10;;
12212;SDS011;6169;44.158;22.788;2023-08-08T14:38:33;0.98;;;0.30;;
12212;SDS011;6169;44.158;22.788;2023-08-08T14:43:36;0.50;;;0.20;;
12212;SDS011;6169;44.158;22.788;2023-08-08T14:48:40;0.05;;;0.00;;
12212;SDS011;6169;44.158;22.788;2023-08-08T14:53:42;0.00;;;0.00;;
12212;SDS011;6169;44.158;22.788;2023-08-08T14:58:45;0.43;;;0.40;;
12212;SDS011;6169;44.158;22.788;2023-08-08T15:03:49;0.10;;;0.00;;
12212;SDS011;6169;44.158;22.788;2023-08-08T15:08:51;0.10;;;0.10;;
12212;SDS011;6169;44.158;22.788;2023-08-08T15:13:54;0.10;;;0.00;;
12212;SDS011;6169;44.158;22.788;2023-08-08T15:18:58;0.20;;;0.10;;
12212;SDS011;6169;44.158;22.788;2023-08-08T15:24:00;0.52;;;0.30;;
12212;SDS011;6169;44.158;22.788;2023-08-08T15:29:02;0.40;;;0.30;;
12212;SDS011;6169;44.158;22.788;2023-08-08T15:34:06;0.45;;;0.00;;
12212;SDS011;6169;44.158;22.788;2023-08-08T15:39:09;0.40;;;0.10;;
12212;SDS011;6169;44.158;22.788;2023-08-08T15:44:11;0.10;;;0.10;;
12212;SDS011;6169;44.158;22.788;2023-08-08T15:49:15;1.20;;;0.40;;
12212;SDS011;6169;44.158;22.788;2023-08-08T15:54:17;1.10;;;0.17;;
12212;SDS011;6169;44.158;22.788;2023-08-08T15:59:20;0.17;;;0.17;;
12212;SDS011;6169;44.158;22.788;2023-08-08T16:04:24;0.10;;;0.10;;
12212;SDS011;6169;44.158;22.788;2023-08-08T16:09:26;0.20;;;0.10;;
12212;SDS011;6169;44.158;22.788;2023-08-08T16:14:28;0.85;;;0.10;;
12212;SDS011;6169;44.158;22.788;2023-08-08T16:19:32;0.65;;;0.03;;
12212;SDS011;6169;44.158;22.788;2023-08-08T16:24:34;1.38;;;0.08;;
12212;SDS011;6169;44.158;22.788;2023-08-08T16:29:37;0.30;;;0.10;;
12212;SDS011;6169;44.158;22.788;2023-08-08T16:34:41;1.45;;;0.00;;
12212;SDS011;6169;44.158;22.788;2023-08-08T16:39:46;1.58;;;0.10;;
12212;SDS011;6169;44.158;22.788;2023-08-08T16:44:48;0.55;;;0.20;;
12212;SDS011;6169;44.158;22.788;2023-08-08T16:49:53;0.30;;;0.30;;
12212;SDS011;6169;44.158;22.788;2023-08-08T16:54:55;0.22;;;0.20;;
12212;SDS011;6169;44.158;22.788;2023-08-08T16:59:57;0.00;;;0.00;;
12212;SDS011;6169;44.158;22.788;2023-08-08T17:05:03;0.10;;;0.10;;
12212;SDS011;6169;44.158;22.788;2023-08-08T17:10:06;1.10;;;0.25;;
12212;SDS011;6169;44.158;22.788;2023-08-08T17:15:10;1.85;;;0.88;;
12212;SDS011;6169;44.158;22.788;2023-08-08T17:20:13;3.05;;;0.70;;
12212;SDS011;6169;44.158;22.788;2023-08-08T17:25:16;2.08;;;0.40;;
12212;SDS011;6169;44.158;22.788;2023-08-08T17:30:19;0.75;;;0.32;;
12212;SDS011;6169;44.158;22.788;2023-08-08T17:35:22;2.40;;;0.43;;
12212;SDS011;6169;44.158;22.788;2023-08-08T17:40:27;0.22;;;0.22;;
12212;SDS011;6169;44.158;22.788;2023-08-08T17:45:29;0.57;;;0.45;;
12212;SDS011;6169;44.158;22.788;2023-08-08T17:50:33;0.75;;;0.30;;
12212;SDS011;6169;44.158;22.788;2023-08-08T17:55:35;1.00;;;0.25;;
12212;SDS011;6169;44.158;22.788;2023-08-08T18:00:38;1.80;;;0.20;;
12212;SDS011;6169;44.158;22.788;2023-08-08T18:05:42;0.57;;;0.20;;
12212;SDS011;6169;44.158;22.788;2023-08-08T18:10:44;0.30;;;0.30;;
12212;SDS011;6169;44.158;22.788;2023-08-08T18:15:48;0.30;;;0.30;;
12212;SDS011;6169;44.158;22.788;2023-08-08T18:20:52;0.63;;;0.28;;
12212;SDS011;6169;44.158;22.788;2023-08-08T18:25:55;0.80;;;0.40;;
12212;SDS011;6169;44.158;22.788;2023-08-08T18:30:57;0.10;;;0.10;;
12212;SDS011;6169;44.158;22.788;2023-08-08T18:36:01;0.70;;;0.50;;
12212;SDS011;6169;44.158;22.788;2023-08-08T18:41:04;0.70;;;0.17;;
12212;SDS011;6169;44.158;22.788;2023-08-08T18:46:06;0.20;;;0.17;;
12212;SDS011;6169;44.158;22.788;2023-08-08T18:51:10;0.65;;;0.30;;
12212;SDS011;6169;44.158;22.788;2023-08-08T18:56:12;1.15;;;0.60;;
12212;SDS011;6169;44.158;22.788;2023-08-08T19:01:14;0.75;;;0.57;;
12212;SDS011;6169;44.158;22.788;2023-08-08T19:06:18;1.02;;;0.38;;
12212;SDS011;6169;44.158;22.788;2023-08-08T19:11:21;0.55;;;0.30;;
12212;SDS011;6169;44.158;22.788;2023-08-08T19:16:23;0.50;;;0.50;;
12212;SDS011;6169;44.158;22.788;2023-08-08T19:21:28;0.43;;;0.30;;
12212;SDS011;6169;44.158;22.788;2023-08-08T19:26:30;0.50;;;0.50;;
12212;SDS011;6169;44.158;22.788;2023-08-08T19:31:32;1.30;;;0.43;;
12212;SDS011;6169;44.158;22.788;2023-08-08T19:36:36;2.78;;;0.50;;
12212;SDS011;6169;44.158;22.788;2023-08-08T19:41:39;0.60;;;0.43;;
12212;SDS011;6169;44.158;22.788;2023-08-08T19:46:41;1.08;;;0.30;;
12212;SDS011;6169;44.158;22.788;2023-08-08T19:51:45;4.07;;;0.40;;
12212;SDS011;6169;44.158;22.788;2023-08-08T19:56:47;1.02;;;0.40;;
12212;SDS011;6169;44.158;22.788;2023-08-08T20:01:50;1.15;;;0.50;;
12212;SDS011;6169;44.158;22.788;2023-08-08T20:06:53;0.43;;;0.30;;
12212;SDS011;6169;44.158;22.788;2023-08-08T20:11:55;0.55;;;0.30;;
12212;SDS011;6169;44.158;22.788;2023-08-08T20:16:58;1.85;;;0.35;;
12212;SDS011;6169;44.158;22.788;2023-08-08T20:22:01;1.92;;;0.55;;
12212;SDS011;6169;44.158;22.788;2023-08-08T20:27:04;1.63;;;0.30;;
12212;SDS011;6169;44.158;22.788;2023-08-08T20:32:06;1.17;;;0.35;;
12212;SDS011;6169;44.158;22.788;2023-08-08T20:37:10;1.63;;;0.60;;
12212;SDS011;6169;44.158;22.788;2023-08-08T20:42:13;0.80;;;0.30;;
12212;SDS011;6169;44.158;22.788;2023-08-08T20:47:15;0.60;;;0.45;;
12212;SDS011;6169;44.158;22.788;2023-08-08T20:52:19;2.05;;;0.70;;
12212;SDS011;6169;44.158;22.788;2023-08-08T20:57:21;1.75;;;0.77;;
12212;SDS011;6169;44.158;22.788;2023-08-08T21:02:23;0.55;;;0.40;;
12212;SDS011;6169;44.158;22.788;2023-08-08T21:07:27;1.95;;;1.70;;
12212;SDS011;6169;44.158;22.788;2023-08-08T21:12:29;0.70;;;0.40;;
12212;SDS011;6169;44.158;22.788;2023-08-08T21:17:31;1.00;;;0.55;;
12212;SDS011;6169;44.158;22.788;2023-08-08T21:22:35;0.95;;;0.70;;
12212;SDS011;6169;44.158;22.788;2023-08-08T21:27:37;2.15;;;0.43;;
12212;SDS011;6169;44.158;22.788;2023-08-08T21:32:40;0.47;;;0.22;;
12212;SDS011;6169;44.158;22.788;2023-08-08T21:37:43;2.55;;;0.60;;
12212;SDS011;6169;44.158;22.788;2023-08-08T21:42:45;1.60;;;0.30;;
12212;SDS011;6169;44.158;22.788;2023-08-08T21:47:48;0.93;;;0.90;;
12212;SDS011;6169;44.158;22.788;2023-08-08T21:52:51;1.63;;;0.75;;
12212;SDS011;6169;44.158;22.788;2023-08-08T21:57:53;1.75;;;0.70;;
12212;SDS011;6169;44.158;22.788;2023-08-08T22:02:55;0.80;;;0.77;;
12212;SDS011;6169;44.158;22.788;2023-08-08T22:07:59;1.17;;;0.93;;
12212;SDS011;6169;44.158;22.788;2023-08-08T22:13:01;1.60;;;0.75;;
12212;SDS011;6169;44.158;22.788;2023-08-08T22:18:09;1.10;;;0.70;;
12212;SDS011;6169;44.158;22.788;2023-08-08T22:23:14;0.90;;;0.77;;
12212;SDS011;6169;44.158;22.788;2023-08-08T22:28:16;0.68;;;0.60;;
12212;SDS011;6169;44.158;22.788;2023-08-08T22:33:19;1.58;;;1.15;;
12212;SDS011;6169;44.158;22.788;2023-08-08T22:38:22;3.75;;;1.00;;
12212;SDS011;6169;44.158;22.788;2023-08-08T22:43:25;1.45;;;0.80;;
12212;SDS011;6169;44.158;22.788;2023-08-08T22:48:27;5.25;;;1.00;;
12212;SDS011;6169;44.158;22.788;2023-08-08T22:53:30;1.52;;;0.98;;
12212;SDS011;6169;44.158;22.788;2023-08-08T22:58:33;1.08;;;0.98;;
12212;SDS011;6169;44.158;22.788;2023-08-08T23:03:35;0.82;;;0.80;;
12212;SDS011;6169;44.158;22.788;2023-08-08T23:08:40;2.25;;;1.30;;
12212;SDS011;6169;44.158;22.788;2023-08-08T23:13:42;1.42;;;1.08;;
12212;SDS011;6169;44.158;22.788;2023-08-08T23:18:44;1.08;;;0.65;;
12212;SDS011;6169;44.158;22.788;2023-08-08T23:23:48;2.08;;;0.90;;
12212;SDS011;6169;44.158;22.788;2023-08-08T23:28:50;1.45;;;1.25;;
12212;SDS011;6169;44.158;22.788;2023-08-08T23:33:52;3.17;;;0.93;;
12212;SDS011;6169;44.158;22.788;2023-08-08T23:38:56;1.05;;;0.95;;
12212;SDS011;6169;44.158;22.788;2023-08-08T23:43:58;1.40;;;1.17;;
12212;SDS011;6169;44.158;22.788;2023-08-08T23:49:00;2.45;;;1.02;;
12212;SDS011;6169;44.158;22.788;2023-08-08T23:54:05;2.22;;;1.25;;
12212;SDS011;6169;44.158;22.788;2023-08-08T23:59:07;1.80;;;1.08;;
